createdAt,value
2022-08-30T00:00:41.428Z,3.83
2022-08-30T00:03:10.560Z,3.97
2022-08-30T00:05:38.701Z,4.63
2022-08-30T00:08:08.099Z,3.53
2022-08-30T00:10:36.139Z,3.53
2022-08-30T00:13:04.177Z,4.00
2022-08-30T00:15:32.291Z,3.20
2022-08-30T00:18:00.333Z,3.80
2022-08-30T00:20:30.616Z,4.70
2022-08-30T00:22:58.605Z,3.80
2022-08-30T00:25:28.189Z,3.60
2022-08-30T00:27:56.255Z,4.37
2022-08-30T00:30:24.284Z,3.70
2022-08-30T00:32:52.272Z,3.70
2022-08-30T00:35:21.081Z,4.17
2022-08-30T00:37:49.261Z,3.33
2022-08-30T00:40:17.358Z,3.40
2022-08-30T00:42:50.098Z,3.23
2022-08-30T00:45:20.683Z,4.50
2022-08-30T00:47:48.662Z,5.73
2022-08-30T00:50:17.416Z,4.70
2022-08-30T00:52:47.425Z,5.47
2022-08-30T00:55:16.174Z,5.73
2022-08-30T00:57:44.419Z,4.83
2022-08-30T01:00:15.635Z,5.73
2022-08-30T01:02:43.875Z,5.47
2022-08-30T01:05:16.012Z,5.20
2022-08-30T01:07:44.210Z,5.10
2022-08-30T01:10:13.136Z,5.67
2022-08-30T01:12:41.722Z,5.23
2022-08-30T01:15:10.530Z,4.67
2022-08-30T01:17:41.493Z,4.30
2022-08-30T01:20:12.640Z,4.23
2022-08-30T01:22:42.483Z,5.50
2022-08-30T01:25:14.640Z,4.60
2022-08-30T01:27:44.372Z,5.20
2022-08-30T01:30:13.162Z,5.90
2022-08-30T01:32:42.069Z,4.97
2022-08-30T01:35:10.921Z,4.23
2022-08-30T01:37:39.084Z,4.67
2022-08-30T01:40:08.375Z,4.50
2022-08-30T01:42:38.553Z,6.00
2022-08-30T01:45:07.347Z,4.53
2022-08-30T01:47:35.376Z,4.73
2022-08-30T01:50:03.499Z,5.13
2022-08-30T01:52:31.548Z,5.43
2022-08-30T01:54:59.533Z,4.23
2022-08-30T01:57:28.413Z,4.50
2022-08-30T01:59:57.775Z,5.03
2022-08-30T02:02:27.109Z,4.83
2022-08-30T02:04:55.157Z,4.50
2022-08-30T02:07:23.259Z,4.30
2022-08-30T02:09:51.434Z,4.20
2022-08-30T02:12:19.445Z,4.90
2022-08-30T02:14:47.436Z,5.20
2022-08-30T02:17:17.038Z,5.10
2022-08-30T02:19:45.055Z,4.53
2022-08-30T02:22:13.090Z,5.77
2022-08-30T02:24:41.092Z,4.50
2022-08-30T02:27:09.099Z,5.23
2022-08-30T02:29:37.120Z,5.17
2022-08-30T02:32:05.433Z,4.73
2022-08-30T02:34:34.896Z,5.03
2022-08-30T02:37:02.920Z,5.67
2022-08-30T02:39:30.911Z,4.93
2022-08-30T02:41:58.921Z,5.97
2022-08-30T02:44:26.930Z,5.73
2022-08-30T02:46:54.897Z,5.50
2022-08-30T02:49:33.313Z,6.90
2022-08-30T02:52:04.188Z,4.97
2022-08-30T02:54:33.406Z,5.20
2022-08-30T02:57:04.738Z,5.30
2022-08-30T02:59:33.070Z,5.17
2022-08-30T03:02:01.118Z,4.77
2022-08-30T03:04:29.471Z,4.73
2022-08-30T03:06:57.520Z,4.90
2022-08-30T03:09:26.946Z,4.73
2022-08-30T03:11:54.951Z,4.50
2022-08-30T03:14:22.965Z,4.47
2022-08-30T03:16:51.227Z,4.87
2022-08-30T03:19:19.290Z,5.50
2022-08-30T03:21:47.355Z,4.80
2022-08-30T03:24:15.345Z,4.63
2022-08-30T03:26:46.598Z,4.10
2022-08-30T03:29:14.810Z,4.50
2022-08-30T03:31:52.379Z,6.10
2022-08-30T03:34:21.979Z,5.03
2022-08-30T03:36:50.038Z,3.90
2022-08-30T03:39:18.021Z,4.33
2022-08-30T03:41:47.394Z,5.30
2022-08-30T03:44:15.367Z,4.90
2022-08-30T03:46:43.439Z,4.97
2022-08-30T03:49:11.446Z,5.87
2022-08-30T03:51:39.433Z,5.03
2022-08-30T03:54:07.454Z,4.43
2022-08-30T03:56:35.439Z,4.33
2022-08-30T03:59:05.000Z,4.40
2022-08-30T04:01:33.137Z,4.47
2022-08-30T04:04:01.226Z,5.00
2022-08-30T04:06:30.734Z,5.40
2022-08-30T04:08:58.702Z,6.53
2022-08-30T04:11:26.734Z,5.00
2022-08-30T04:13:56.210Z,4.97
2022-08-30T04:16:25.632Z,5.40
2022-08-30T04:18:53.692Z,5.63
2022-08-30T04:21:21.993Z,4.93
2022-08-30T04:23:50.179Z,5.23
2022-08-30T04:26:18.324Z,5.90
2022-08-30T04:28:46.329Z,7.20
2022-08-30T04:31:15.588Z,7.23
2022-08-30T04:33:44.993Z,5.70
2022-08-30T04:36:13.862Z,5.50
2022-08-30T04:38:42.050Z,5.93
2022-08-30T04:41:11.365Z,5.27
2022-08-30T04:43:39.613Z,4.47
2022-08-30T04:46:08.311Z,4.50
2022-08-30T04:48:36.607Z,4.93
2022-08-30T04:51:06.758Z,4.70
2022-08-30T04:53:34.824Z,4.93
2022-08-30T04:56:02.926Z,5.60
2022-08-30T04:58:30.934Z,4.50
2022-08-30T05:00:58.953Z,4.77
2022-08-30T05:03:26.991Z,4.00
2022-08-30T05:05:54.980Z,4.70
2022-08-30T05:08:24.883Z,5.10
2022-08-30T05:10:53.245Z,3.97
2022-08-30T05:13:26.248Z,4.63
2022-08-30T05:16:05.171Z,4.00
2022-08-30T05:18:33.297Z,3.63
2022-08-30T05:21:05.515Z,4.07
2022-08-30T05:23:35.027Z,4.00
2022-08-30T05:26:07.612Z,3.90
2022-08-30T05:28:35.865Z,3.90
2022-08-30T05:31:03.973Z,4.17
2022-08-30T05:33:32.081Z,3.60
2022-08-30T05:36:07.589Z,4.27
2022-08-30T05:38:36.981Z,3.50
2022-08-30T05:41:10.735Z,3.90
2022-08-30T05:43:39.270Z,3.53
2022-08-30T05:46:08.329Z,3.00
2022-08-30T05:48:36.432Z,3.23
2022-08-30T05:51:06.046Z,3.53
2022-08-30T05:53:34.083Z,2.87
2022-08-30T05:56:03.965Z,2.90
2022-08-30T05:58:32.148Z,3.03
2022-08-30T06:01:00.251Z,3.30
2022-08-30T06:03:28.471Z,3.67
2022-08-30T06:05:56.560Z,4.00
2022-08-30T06:08:24.639Z,3.40
2022-08-30T06:10:52.716Z,3.40
2022-08-30T06:13:22.399Z,3.53
2022-08-30T06:15:51.268Z,3.10
2022-08-30T06:18:19.712Z,3.10
2022-08-30T06:20:56.411Z,3.97
2022-08-30T06:23:24.520Z,2.87
2022-08-30T06:25:52.481Z,4.30
2022-08-30T06:28:21.929Z,3.30
2022-08-30T06:30:49.929Z,4.10
2022-08-30T06:33:18.005Z,2.67
2022-08-30T06:35:58.296Z,3.63
2022-08-30T06:38:27.356Z,3.10
2022-08-30T06:40:55.369Z,2.93
2022-08-30T06:43:24.718Z,3.10
2022-08-30T06:45:52.735Z,3.60
2022-08-30T06:48:20.735Z,4.17
2022-08-30T06:50:54.581Z,3.20
2022-08-30T06:53:22.644Z,2.80
2022-08-30T06:55:56.569Z,3.03
2022-08-30T06:58:25.994Z,3.27
2022-08-30T07:00:53.995Z,3.77
2022-08-30T07:03:22.007Z,3.37
2022-08-30T07:05:50.133Z,2.10
2022-08-30T07:08:18.336Z,3.07
2022-08-30T07:10:46.552Z,3.50
2022-08-30T07:13:14.624Z,3.47
2022-08-30T07:15:44.355Z,3.27
2022-08-30T07:18:30.162Z,3.42
2022-08-30T07:20:58.317Z,2.88
2022-08-30T07:23:26.312Z,2.97
2022-08-30T07:25:54.323Z,3.88
2022-08-30T07:28:22.638Z,3.08
2022-08-30T07:30:52.368Z,3.10
2022-08-30T07:33:20.379Z,3.22
2022-08-30T07:35:48.354Z,3.33
2022-08-30T07:38:16.353Z,2.67
2022-08-30T07:40:44.563Z,2.90
2022-08-30T07:43:12.624Z,2.67
2022-08-30T07:45:40.799Z,2.80
2022-08-30T07:48:11.654Z,2.95
2022-08-30T07:50:39.904Z,2.65
2022-08-30T07:53:10.756Z,3.13
2022-08-30T07:55:39.558Z,3.03
2022-08-30T07:58:07.644Z,2.55
2022-08-30T08:00:35.705Z,2.97
2022-08-30T08:03:07.570Z,2.47
2022-08-30T08:05:40.078Z,2.67
2022-08-30T08:08:08.202Z,3.20
2022-08-30T08:10:37.235Z,2.45
2022-08-30T08:13:05.291Z,2.80
2022-08-30T08:15:33.389Z,2.85
2022-08-30T08:18:01.603Z,2.42
2022-08-30T08:20:29.794Z,2.65
2022-08-30T08:22:59.264Z,3.00
2022-08-30T08:25:27.398Z,2.70
2022-08-30T08:27:55.381Z,3.67
2022-08-30T08:30:23.946Z,2.90
2022-08-30T08:32:52.192Z,2.55
2022-08-30T08:35:20.210Z,4.10
2022-08-30T08:37:48.509Z,3.10
2022-08-30T08:40:19.206Z,2.33
2022-08-30T08:42:55.799Z,3.40
2022-08-30T08:45:28.537Z,2.28
2022-08-30T08:48:04.034Z,3.30
2022-08-30T08:50:32.460Z,2.17
2022-08-30T08:53:46.322Z,2.63
2022-08-30T08:56:17.299Z,3.67
2022-08-30T08:58:47.103Z,2.92
2022-08-30T09:01:16.910Z,2.70
2022-08-30T09:03:45.191Z,3.67
2022-08-30T09:06:24.449Z,3.10
2022-08-30T09:08:52.457Z,2.63
2022-08-30T09:11:26.275Z,3.58
2022-08-30T09:13:54.871Z,3.13
2022-08-30T09:16:48.280Z,2.97
2022-08-30T09:19:29.564Z,2.92
2022-08-30T09:22:03.658Z,2.92
2022-08-30T09:24:39.087Z,2.83
2022-08-30T09:27:23.835Z,2.92
2022-08-30T09:29:54.298Z,2.58
2022-08-30T09:32:27.385Z,2.10
2022-08-30T09:34:55.359Z,2.67
2022-08-30T09:37:33.094Z,3.03
2022-08-30T09:40:01.450Z,2.50
2022-08-30T09:42:31.181Z,2.50
2022-08-30T09:45:10.649Z,2.50
2022-08-30T09:47:40.740Z,2.60
2022-08-30T09:50:10.867Z,2.60
2022-08-30T09:52:43.968Z,2.20
2022-08-30T09:55:20.028Z,2.38
2022-08-30T09:57:52.629Z,2.78
2022-08-30T10:41:15.643Z,2.97
2022-08-30T17:14:12.123Z,4.50
